Time;durP1;ratioP1;P1;durP2;ratioP2;P2;SDS_P1;SDS_P2;PMS_P1;PMS_P2;Temp;Humidity;BMP_temperature;BMP_pressure;BME280_temperature;BME280_humidity;BME280_pressure;Samples;Min_cycle;Max_cycle;Signal;HPM_P1;HPM_P2
2023/08/16 00:01:00;;;;;;;0.20;0.20;;;;;;;23.70;63.28;101302.81;4943569;28;20058;-93
2023/08/16 00:03:26;;;;;;;0.20;0.20;;;;;;;23.68;63.96;101296.84;4944070;28;20034;-90
2023/08/16 00:05:52;;;;;;;0.20;0.20;;;;;;;23.69;63.92;101307.25;4944893;28;20385;-90
2023/08/16 00:08:18;;;;;;;0.10;0.10;;;;;;;23.65;64.80;101313.81;4943974;28;20121;-89
2023/08/16 00:10:43;;;;;;;0.20;0.20;;;;;;;23.59;64.35;101306.44;4959872;28;20524;-93
2023/08/16 00:13:09;;;;;;;0.10;0.10;;;;;;;23.67;65.07;101318.94;4959570;28;20038;-93
2023/08/16 00:15:34;;;;;;;0.10;0.10;;;;;;;23.71;64.75;101318.53;4943953;28;20042;-92
2023/08/16 00:17:59;;;;;;;0.15;0.15;;;;;;;23.74;64.97;101323.50;4944083;28;20031;-93
2023/08/16 00:20:43;;;;;;;0.10;0.10;;;;;;;23.68;64.64;101302.13;4944385;28;20035;-91
2023/08/16 00:23:09;;;;;;;0.20;0.20;;;;;;;23.66;64.56;101315.47;4944126;28;20058;-91
2023/08/16 00:25:34;;;;;;;0.20;0.20;;;;;;;23.59;65.48;101314.38;4943347;28;20031;-93
2023/08/16 00:28:00;;;;;;;0.10;0.10;;;;;;;23.64;65.74;101320.06;4943950;28;20125;-92
2023/08/16 00:30:25;;;;;;;0.10;0.10;;;;;;;23.67;66.25;101311.84;4943633;28;20027;-91
2023/08/16 00:32:50;;;;;;;0.73;0.20;;;;;;;23.67;65.93;101319.78;4943347;28;20416;-90
2023/08/16 00:35:16;;;;;;;0.10;0.10;;;;;;;23.69;66.13;101314.34;4943264;28;20033;-92
2023/08/16 00:37:41;;;;;;;0.10;0.10;;;;;;;23.79;65.84;101315.16;4959042;28;20031;-92
2023/08/16 00:40:08;;;;;;;0.20;0.20;;;;;;;23.89;65.69;101325.69;4943233;28;20027;-92
2023/08/16 00:42:34;;;;;;;0.20;0.20;;;;;;;23.79;66.56;101324.88;4943578;28;20408;-92
2023/08/16 00:44:59;;;;;;;0.13;0.13;;;;;;;23.90;65.83;101327.38;4944105;28;20037;-92
2023/08/16 00:47:27;;;;;;;0.20;0.20;;;;;;;23.89;66.04;101326.53;4944528;28;20061;-92
2023/08/16 00:50:28;;;;;;;0.20;0.20;;;;;;;23.89;66.61;101330.97;4943790;28;20035;-92
2023/08/16 00:52:54;;;;;;;0.20;0.20;;;;;;;23.88;66.57;101326.66;4958903;28;20022;-91
2023/08/16 00:55:20;;;;;;;0.20;0.20;;;;;;;23.89;66.57;101326.53;4942946;28;20120;-91
2023/08/16 00:57:45;;;;;;;0.20;0.20;;;;;;;23.92;67.15;101328.06;4942886;28;20472;-91
2023/08/16 01:00:11;;;;;;;0.20;0.20;;;;;;;23.83;67.00;101315.72;4942999;28;20476;-93
2023/08/16 01:02:36;;;;;;;0.20;0.20;;;;;;;23.82;67.73;101329.91;4943825;28;20031;-90
2023/08/16 01:05:02;;;;;;;0.13;0.13;;;;;;;23.81;67.75;101329.06;4943637;28;20382;-92
2023/08/16 01:07:28;;;;;;;0.20;0.20;;;;;;;23.72;68.19;101322.84;4943336;28;20038;-91
2023/08/16 01:09:53;;;;;;;0.10;0.10;;;;;;;23.83;67.78;101329.75;4943287;28;20093;-90
2023/08/16 01:12:23;;;;;;;0.10;0.10;;;;;;;23.88;67.64;101316.91;4942917;28;20023;-91
2023/08/16 01:15:00;;;;;;;0.20;0.20;;;;;;;23.72;67.29;101296.41;4958819;28;20035;-90
2023/08/16 01:17:26;;;;;;;0.20;0.20;;;;;;;23.81;68.15;101323.78;4943216;28;20027;-89
2023/08/16 01:19:53;;;;;;;0.10;0.10;;;;;;;23.81;68.09;101323.78;4942847;28;20496;-91
2023/08/16 01:22:37;;;;;;;0.20;0.20;;;;;;;23.72;68.87;101324.66;4943314;28;20027;-90
2023/08/16 01:25:32;;;;;;;0.20;0.20;;;;;;;23.53;69.28;101298.25;4992077;28;20030;-90
2023/08/16 01:27:57;;;;;;;0.10;0.10;;;;;;;23.50;68.92;101293.22;4960741;28;20074;-91
2023/08/16 01:30:23;;;;;;;0.20;0.20;;;;;;;23.72;68.87;101329.94;4942692;28;20031;-92
2023/08/16 01:32:48;;;;;;;0.20;0.20;;;;;;;23.65;69.18;101323.53;4943313;28;20062;-92
2023/08/16 01:35:14;;;;;;;0.15;0.15;;;;;;;23.59;69.45;101324.94;4943274;28;20034;-91
2023/08/16 01:37:41;;;;;;;0.20;0.20;;;;;;;23.58;69.51;101328.53;4943127;28;20030;-91
2023/08/16 01:40:08;;;;;;;0.20;0.20;;;;;;;23.53;70.11;101325.50;4942974;28;20057;-92
2023/08/16 01:42:38;;;;;;;0.20;0.20;;;;;;;23.52;70.32;101329.09;4942724;28;20034;-91
2023/08/16 01:45:04;;;;;;;0.20;0.20;;;;;;;23.55;69.88;101334.09;4943076;28;20034;-91
2023/08/16 01:47:29;;;;;;;0.10;0.10;;;;;;;23.63;69.49;101336.06;4942247;28;20023;-90
2023/08/16 01:49:57;;;;;;;0.20;0.20;;;;;;;23.66;68.52;101330.47;4941678;28;20034;-91
2023/08/16 01:52:25;;;;;;;0.20;0.20;;;;;;;23.72;67.45;101335.22;4941869;28;20041;-92
2023/08/16 01:54:50;;;;;;;0.17;0.17;;;;;;;23.66;68.19;101330.47;4941959;28;20027;-91
2023/08/16 01:57:16;;;;;;;0.10;0.10;;;;;;;23.60;68.22;101334.56;4941907;28;20030;-91
2023/08/16 01:59:41;;;;;;;0.20;0.20;;;;;;;23.59;67.72;101330.22;4942708;28;20031;-91
2023/08/16 02:02:07;;;;;;;0.10;0.10;;;;;;;23.63;67.41;101339.53;4942106;28;20046;-93
2023/08/16 02:04:32;;;;;;;0.10;0.10;;;;;;;23.45;67.36;101322.72;4958416;28;20037;-94
2023/08/16 02:06:57;;;;;;;0.20;0.20;;;;;;;23.51;67.88;101324.81;4942402;28;20038;-90
2023/08/16 02:09:23;;;;;;;0.20;0.20;;;;;;;23.53;66.94;101319.38;4943135;28;20031;-92
2023/08/16 02:11:49;;;;;;;0.10;0.10;;;;;;;23.63;66.37;101331.63;4940494;28;20039;-90
2023/08/16 02:14:14;;;;;;;0.20;0.20;;;;;;;23.58;66.47;101325.88;4941510;28;20037;-90
2023/08/16 02:17:03;;;;;;;0.20;0.20;;;;;;;23.42;66.65;101331.75;4942291;28;20038;-91
2023/08/16 02:19:28;;;;;;;0.10;0.10;;;;;;;23.23;67.09;101328.31;4974250;28;20084;-92
2023/08/16 02:21:53;;;;;;;0.20;0.20;;;;;;;23.20;67.46;101329.41;4942147;28;20026;-91
2023/08/16 02:24:19;;;;;;;0.20;0.20;;;;;;;23.17;67.38;101329.69;4942182;28;20085;-91
2023/08/16 02:26:44;;;;;;;0.10;0.10;;;;;;;23.07;67.42;101334.97;4941289;28;20037;-90
2023/08/16 02:29:10;;;;;;;0.10;0.10;;;;;;;23.03;67.31;101328.31;4942283;28;20038;-93
2023/08/16 02:31:35;;;;;;;0.10;0.10;;;;;;;23.02;67.71;101331.94;4941934;28;20031;-90
2023/08/16 02:34:01;;;;;;;0.20;0.20;;;;;;;22.97;68.09;101342.03;4941402;28;20038;-91
2023/08/16 02:36:26;;;;;;;0.10;0.10;;;;;;;23.01;67.98;101334.69;4941832;28;20030;-91
2023/08/16 02:38:52;;;;;;;0.15;0.15;;;;;;;23.04;67.47;101329.97;4942633;28;20073;-90
2023/08/16 02:41:18;;;;;;;0.20;0.20;;;;;;;22.99;68.37;101337.47;4942091;28;20031;-90
2023/08/16 02:43:44;;;;;;;0.15;0.15;;;;;;;23.01;67.66;101340.81;4941247;28;20033;-92
2023/08/16 02:46:32;;;;;;;0.10;0.10;;;;;;;23.04;68.11;101342.34;4942484;28;20034;-93
2023/08/16 02:48:57;;;;;;;0.10;0.10;;;;;;;23.08;68.01;101341.91;4958231;28;20031;-90
2023/08/16 02:51:23;;;;;;;0.20;0.20;;;;;;;23.02;68.49;101331.94;4941080;28;20480;-91
2023/08/16 02:53:48;;;;;;;0.10;0.10;;;;;;;23.03;68.52;101343.31;4942316;28;20034;-91
2023/08/16 02:56:14;;;;;;;0.10;0.10;;;;;;;23.04;68.25;101344.97;4941593;28;20038;-93
2023/08/16 02:58:39;;;;;;;0.10;0.10;;;;;;;23.11;68.15;101346.94;4940839;28;20034;-91
2023/08/16 03:01:05;;;;;;;0.10;0.10;;;;;;;23.06;67.91;101345.66;4941678;28;20386;-92
2023/08/16 03:03:31;;;;;;;0.20;0.20;;;;;;;23.12;67.96;101343.31;4942453;28;20027;-91
2023/08/16 03:12:52;;;;;;;0.10;0.10;;;;;;;23.60;65.31;101350.41;4973507;28;20552;-91
2023/08/16 03:19:23;;;;;;;0.10;0.10;;;;;;;23.98;63.57;101353.88;4974658;28;20097;-90
2023/08/16 03:21:48;;;;;;;0.20;0.20;;;;;;;23.95;63.44;101343.63;4989096;28;20031;-89
2023/08/16 03:24:14;;;;;;;0.10;0.10;;;;;;;23.86;63.48;101333.91;4941581;28;20030;-90
2023/08/16 03:26:39;;;;;;;0.10;0.10;;;;;;;23.85;63.34;101345.44;4956852;28;20034;-91
2023/08/16 03:32:46;;;;;;;0.20;0.20;;;;;;;23.66;65.41;101347.16;4973685;28;20031;-91
2023/08/16 03:35:13;;;;;;;0.20;0.20;;;;;;;23.57;65.36;101353.28;4926239;28;20062;-91
2023/08/16 03:37:38;;;;;;;0.10;0.10;;;;;;;23.56;64.99;101358.69;4957692;28;20035;-92
2023/08/16 03:40:06;;;;;;;0.10;0.10;;;;;;;23.53;65.07;101356.34;4963789;28;20031;-91
2023/08/16 03:42:31;;;;;;;0.20;0.20;;;;;;;23.44;64.65;101344.81;4961653;28;20089;-92
2023/08/16 03:44:57;;;;;;;0.10;0.10;;;;;;;23.62;64.48;101366.94;4987026;28;20022;-92
2023/08/16 03:47:22;;;;;;;0.20;0.20;;;;;;;23.73;64.04;101364.13;4950348;28;20023;-92
2023/08/16 03:49:48;;;;;;;0.10;0.10;;;;;;;24.03;62.73;101371.00;4960469;28;20035;-92
2023/08/16 03:52:13;;;;;;;0.13;0.13;;;;;;;24.22;62.32;101364.81;4943649;28;20039;-93
2023/08/16 03:54:39;;;;;;;0.20;0.20;;;;;;;24.10;61.83;101339.53;4943716;28;20070;-92
2023/08/16 03:57:04;;;;;;;0.15;0.15;;;;;;;24.25;61.59;101359.22;4945560;28;20026;-89
2023/08/16 03:59:30;;;;;;;0.10;0.10;;;;;;;24.23;61.24;101352.41;4971039;28;20027;-89
2023/08/16 04:01:56;;;;;;;0.10;0.10;;;;;;;24.26;61.10;101358.22;4967058;28;20054;-87
2023/08/16 04:04:21;;;;;;;0.20;0.20;;;;;;;24.34;61.29;101356.72;4951361;28;20035;-89
2023/08/16 04:06:47;;;;;;;0.20;0.20;;;;;;;24.36;61.01;101370.59;4937496;28;20042;-88
2023/08/16 04:09:13;;;;;;;0.20;0.20;;;;;;;24.34;61.03;101362.00;4986701;28;20481;-89
2023/08/16 04:11:39;;;;;;;0.20;0.20;;;;;;;24.29;61.15;101370.34;4953990;28;20448;-88
2023/08/16 04:14:04;;;;;;;0.20;0.20;;;;;;;24.06;62.00;101355.81;4954969;28;20023;-87
2023/08/16 04:16:30;;;;;;;0.10;0.10;;;;;;;24.00;62.51;101362.53;4954277;28;20035;-88
2023/08/16 04:18:55;;;;;;;0.10;0.10;;;;;;;23.98;62.34;101373.22;4938397;28;20039;-88
2023/08/16 04:21:21;;;;;;;0.10;0.10;;;;;;;23.82;62.71;101367.72;4938479;28;20026;-89
2023/08/16 04:23:46;;;;;;;0.10;0.10;;;;;;;23.77;61.92;101369.13;4938505;28;20408;-93
2023/08/16 04:26:12;;;;;;;0.10;0.10;;;;;;;23.68;61.83;101360.22;4975880;28;20031;-89
2023/08/16 04:28:38;;;;;;;0.20;0.20;;;;;;;23.77;63.78;101387.59;4937930;28;20047;-93
2023/08/16 04:31:04;;;;;;;0.17;0.17;;;;;;;23.49;63.12;101339.94;4957433;28;20114;-89
2023/08/16 04:33:30;;;;;;;0.10;0.10;;;;;;;23.75;62.66;101385.94;4965837;28;20035;-90
2023/08/16 04:35:55;;;;;;;0.10;0.10;;;;;;;23.86;62.30;101381.47;4961256;28;20031;-86
2023/08/16 04:38:20;;;;;;;0.10;0.10;;;;;;;23.81;62.17;101395.13;4954924;28;20474;-90
2023/08/16 04:40:52;;;;;;;0.20;0.20;;;;;;;23.84;62.76;101396.63;4961511;28;20041;-90
2023/08/16 04:43:23;;;;;;;0.10;0.10;;;;;;;23.90;62.48;101401.38;4963855;28;20038;-94
2023/08/16 04:45:48;;;;;;;0.10;0.10;;;;;;;23.99;61.90;101392.56;4959254;28;20468;-89
2023/08/16 04:48:14;;;;;;;0.20;0.20;;;;;;;24.25;61.47;101403.31;4974064;28;20047;-91
2023/08/16 04:50:39;;;;;;;0.10;0.10;;;;;;;24.33;60.98;101407.94;4942724;28;20038;-89
2023/08/16 04:53:05;;;;;;;0.10;0.10;;;;;;;24.34;60.73;101404.31;4961262;28;20034;-91
2023/08/16 04:55:30;;;;;;;0.20;0.20;;;;;;;24.40;60.01;101403.72;4944042;28;20424;-92
2023/08/16 04:57:56;;;;;;;0.10;0.10;;;;;;;24.29;60.81;101405.56;4957583;28;20089;-94
2023/08/16 05:00:21;;;;;;;0.10;0.10;;;;;;;24.24;60.92;101399.84;4934394;28;20055;-87
2023/08/16 05:02:47;;;;;;;0.10;0.10;;;;;;;24.35;61.06;101405.97;4979290;28;20027;-91
2023/08/16 05:05:12;;;;;;;0.10;0.10;;;;;;;24.16;61.70;101402.38;4973432;28;20424;-90
2023/08/16 05:07:38;;;;;;;0.10;0.10;;;;;;;24.06;62.85;101414.78;4960913;28;20401;-91
2023/08/16 05:10:04;;;;;;;0.20;0.20;;;;;;;24.08;62.67;101406.72;4960813;28;20073;-90
2023/08/16 05:12:30;;;;;;;0.20;0.20;;;;;;;23.87;62.35;101373.41;4973322;28;20057;-93
2023/08/16 05:14:57;;;;;;;0.20;0.20;;;;;;;23.73;62.97;101352.72;4968357;28;20038;-93
2023/08/16 05:17:23;;;;;;;0.20;0.20;;;;;;;24.15;61.49;101395.44;4965589;28;20038;-93
2023/08/16 05:19:48;;;;;;;0.20;0.20;;;;;;;24.12;63.15;101405.47;4994450;28;20548;-91
2023/08/16 05:22:14;;;;;;;0.10;0.10;;;;;;;24.25;62.15;101417.38;4944833;28;20765;-86
2023/08/16 05:24:39;;;;;;;0.10;0.10;;;;;;;24.31;63.63;101414.19;4972489;28;20444;-87
2023/08/16 05:27:05;;;;;;;0.20;0.20;;;;;;;24.55;63.15;101412.84;4977346;28;20058;-93
2023/08/16 05:29:30;;;;;;;0.20;0.20;;;;;;;24.69;61.46;101409.72;4958676;28;20026;-92
2023/08/16 05:31:57;;;;;;;0.20;0.20;;;;;;;24.79;62.69;101391.97;4969525;28;20030;-92
2023/08/16 05:34:23;;;;;;;0.10;0.10;;;;;;;24.93;60.75;101405.66;4962973;28;20030;-93
2023/08/16 05:36:50;;;;;;;0.17;0.17;;;;;;;25.14;60.61;101416.81;5071036;23;20440;-91
2023/08/16 05:39:15;;;;;;;0.10;0.10;;;;;;;24.96;59.50;101410.66;4923806;29;20039;-90
2023/08/16 05:41:41;;;;;;;0.20;0.20;;;;;;;24.76;61.10;101410.75;4955095;28;20035;-91
2023/08/16 05:44:06;;;;;;;0.15;0.15;;;;;;;24.99;60.07;101403.25;4954297;29;20043;-92
2023/08/16 05:46:32;;;;;;;0.20;0.20;;;;;;;25.00;60.72;101428.75;4972093;28;20034;-92
2023/08/16 05:49:00;;;;;;;0.20;0.20;;;;;;;25.03;59.69;101414.41;4939314;28;20035;-91
2023/08/16 05:51:26;;;;;;;0.20;0.20;;;;;;;25.01;59.08;101418.97;4940349;29;20030;-92
2023/08/16 05:53:51;;;;;;;0.10;0.10;;;;;;;24.94;57.74;101408.16;4966048;28;20031;-94
2023/08/16 05:56:17;;;;;;;0.10;0.10;;;;;;;24.89;57.97;101415.72;4956360;28;20035;-92
2023/08/16 05:58:42;;;;;;;0.10;0.10;;;;;;;24.76;59.53;101416.06;4954577;29;20408;-93
2023/08/16 06:01:08;;;;;;;0.10;0.10;;;;;;;24.76;60.65;101431.09;4943622;28;20054;-90
2023/08/16 06:03:33;;;;;;;0.10;0.10;;;;;;;24.82;58.33;101425.22;4954341;28;20556;-88
2023/08/16 06:05:59;;;;;;;0.20;0.20;;;;;;;24.85;59.81;101424.91;4976578;28;20115;-89
2023/08/16 06:08:27;;;;;;;0.10;0.10;;;;;;;25.08;58.97;101420.91;4956229;28;20027;-93
2023/08/16 06:10:53;;;;;;;0.20;0.20;;;;;;;25.22;59.34;101422.19;4978513;28;20023;-89
2023/08/16 06:13:18;;;;;;;0.10;0.10;;;;;;;25.16;57.99;101405.09;4975550;28;20413;-91
2023/08/16 06:15:44;;;;;;;0.10;0.10;;;;;;;25.10;57.31;101410.19;4953479;28;20035;-89
2023/08/16 06:18:09;;;;;;;0.10;0.10;;;;;;;25.20;57.69;101413.59;4973058;28;20547;-92
2023/08/16 06:20:35;;;;;;;0.10;0.10;;;;;;;24.99;57.61;101394.47;4975473;28;20752;-88
2023/08/16 06:23:01;;;;;;;0.20;0.20;;;;;;;25.05;58.10;101402.66;4957652;28;20031;-93
2023/08/16 06:25:30;;;;;;;0.20;0.20;;;;;;;25.15;58.09;101397.31;4955284;28;20089;-91
2023/08/16 06:27:55;;;;;;;0.20;0.20;;;;;;;25.35;57.58;101406.75;4938158;29;20035;-93
2023/08/16 06:30:21;;;;;;;0.10;0.10;;;;;;;25.27;57.09;101382.00;4937579;29;20097;-90
2023/08/16 06:32:46;;;;;;;0.10;0.10;;;;;;;25.51;57.26;101397.28;4955040;28;20043;-90
2023/08/16 06:35:12;;;;;;;0.28;0.20;;;;;;;25.54;55.26;101403.09;4960876;28;20033;-91
2023/08/16 06:37:39;;;;;;;0.20;0.20;;;;;;;25.61;55.90;101403.34;4979553;28;20118;-90
2023/08/16 06:40:05;;;;;;;0.10;0.10;;;;;;;25.74;56.02;101407.25;4973832;28;20031;-90
2023/08/16 06:42:34;;;;;;;0.10;0.10;;;;;;;25.79;55.40;101414.78;4971824;28;20030;-91
2023/08/16 06:45:00;;;;;;;0.15;0.15;;;;;;;25.90;55.29;101406.56;4955832;28;20023;-92
2023/08/16 06:47:25;;;;;;;0.20;0.20;;;;;;;26.05;54.72;101404.16;4943738;28;20042;-91
2023/08/16 06:49:54;;;;;;;0.20;0.20;;;;;;;26.14;54.54;101410.31;4941299;29;20035;-93
2023/08/16 06:52:19;;;;;;;0.20;0.20;;;;;;;26.24;53.96;101419.84;4938185;29;20098;-92
2023/08/16 06:54:45;;;;;;;0.10;0.10;;;;;;;26.19;52.83;101406.22;4934579;29;20032;-94
2023/08/16 06:57:11;;;;;;;0.20;0.20;;;;;;;26.22;54.62;101411.22;4953177;28;20487;-93
2023/08/16 07:02:13;;;;;;;0.10;0.10;;;;;;;26.29;53.02;101406.13;4975430;28;20074;-93
2023/08/16 07:04:39;;;;;;;0.10;0.10;;;;;;;26.35;50.92;101405.50;4940994;28;20489;-91
2023/08/16 07:07:05;;;;;;;0.17;0.17;;;;;;;26.33;52.55;101396.84;4938950;28;20045;-90
2023/08/16 07:09:31;;;;;;;0.10;0.10;;;;;;;26.47;52.06;101406.06;4940151;28;20030;-90
2023/08/16 07:11:56;;;;;;;0.20;0.20;;;;;;;26.37;50.21;101402.69;4921204;29;20490;-89
2023/08/16 07:14:21;;;;;;;0.20;0.20;;;;;;;26.50;51.39;101401.25;4934969;29;20473;-86
2023/08/16 07:16:47;;;;;;;0.20;0.20;;;;;;;26.59;50.92;101402.13;4908933;28;20455;-88
2023/08/16 07:19:12;;;;;;;0.20;0.20;;;;;;;26.57;50.20;101410.25;4924497;28;20516;-91
2023/08/16 07:21:39;;;;;;;0.20;0.20;;;;;;;26.46;50.97;101391.97;4928655;28;20528;-91
2023/08/16 07:24:04;;;;;;;0.10;0.10;;;;;;;26.54;51.47;101404.41;4938061;28;20049;-92
2023/08/16 07:26:30;;;;;;;0.20;0.20;;;;;;;26.58;49.38;101401.28;4940839;28;20489;-93
2023/08/16 07:28:55;;;;;;;0.20;0.20;;;;;;;26.67;50.28;101388.88;4938331;28;20085;-89
2023/08/16 07:31:21;;;;;;;0.20;0.20;;;;;;;26.76;49.27;101387.91;4939438;28;20105;-88
2023/08/16 07:33:46;;;;;;;0.20;0.20;;;;;;;26.96;48.30;101392.94;4922539;28;20038;-88
2023/08/16 07:36:12;;;;;;;0.20;0.20;;;;;;;27.12;47.57;101398.28;4939282;28;20030;-92
2023/08/16 07:38:37;;;;;;;0.10;0.10;;;;;;;27.14;45.54;101391.84;4922352;28;20039;-88
2023/08/16 07:41:03;;;;;;;0.20;0.20;;;;;;;27.11;45.17;101401.94;4944363;28;20043;-93
2023/08/16 07:43:29;;;;;;;0.20;0.20;;;;;;;27.10;46.08;101390.50;4923903;28;20073;-87
2023/08/16 07:45:54;;;;;;;0.20;0.20;;;;;;;27.27;45.32;101396.66;4946454;28;20114;-89
2023/08/16 07:48:20;;;;;;;0.20;0.20;;;;;;;27.24;44.84;101389.03;4921767;28;20031;-87
2023/08/16 07:50:45;;;;;;;0.20;0.20;;;;;;;27.23;44.96;101400.63;4938419;28;20065;-84
2023/08/16 07:53:11;;;;;;;0.20;0.20;;;;;;;27.28;45.65;101398.31;4934295;29;20039;-88
2023/08/16 07:55:37;;;;;;;0.20;0.20;;;;;;;27.37;45.66;101393.84;4936263;28;20035;-90
2023/08/16 07:58:02;;;;;;;0.20;0.20;;;;;;;27.55;45.96;101391.00;4939243;28;20031;-90
2023/08/16 08:00:29;;;;;;;0.20;0.20;;;;;;;27.65;45.98;101399.63;4927421;29;20489;-92
2023/08/16 08:02:55;;;;;;;0.20;0.20;;;;;;;27.71;45.95;101393.66;4942466;29;20489;-92
2023/08/16 08:05:21;;;;;;;0.20;0.20;;;;;;;27.77;46.42;101400.16;4921678;29;20041;-90
2023/08/16 08:07:47;;;;;;;0.20;0.20;;;;;;;27.91;45.60;101392.28;4953990;28;20027;-91
2023/08/16 08:10:14;;;;;;;0.20;0.20;;;;;;;28.05;44.93;101404.09;4942272;28;20034;-93
2023/08/16 08:12:39;;;;;;;0.20;0.20;;;;;;;28.14;44.57;101399.56;4938710;29;20027;-90
2023/08/16 08:15:05;;;;;;;0.20;0.20;;;;;;;28.26;43.94;101399.03;4940074;28;20039;-90
2023/08/16 08:17:33;;;;;;;0.10;0.10;;;;;;;28.21;44.07;101393.38;4958734;28;20031;-93
2023/08/16 08:19:59;;;;;;;0.20;0.20;;;;;;;28.33;43.71;101398.38;4948457;28;20030;-92
2023/08/16 08:22:24;;;;;;;0.20;0.20;;;;;;;28.20;43.84;101378.41;4929518;28;20030;-88
2023/08/16 08:24:50;;;;;;;0.20;0.20;;;;;;;28.44;44.11;101398.00;4975684;28;20038;-91
2023/08/16 08:27:16;;;;;;;0.20;0.20;;;;;;;28.51;43.09;101390.94;4942311;28;20416;-92
2023/08/16 08:29:41;;;;;;;0.20;0.20;;;;;;;28.64;43.04;101393.91;4926371;28;20056;-92
2023/08/16 08:32:20;;;;;;;0.20;0.20;;;;;;;28.67;41.82;101384.72;4926938;28;20031;-94
2023/08/16 08:34:45;;;;;;;0.20;0.20;;;;;;;28.81;41.72;101406.13;4918700;29;20053;-90
2023/08/16 08:37:11;;;;;;;0.10;0.10;;;;;;;28.87;42.19;101396.59;4912986;28;20039;-92
2023/08/16 08:39:37;;;;;;;0.20;0.20;;;;;;;29.01;40.97;101403.03;4935028;29;20054;-93
2023/08/16 08:42:02;;;;;;;0.20;0.20;;;;;;;29.11;41.59;101400.97;4928167;28;20042;-85
2023/08/16 08:44:28;;;;;;;0.20;0.20;;;;;;;29.22;41.53;101411.22;4941022;28;20065;-88
2023/08/16 08:46:53;;;;;;;0.20;0.20;;;;;;;29.37;41.83;101397.91;4941336;28;20427;-90
2023/08/16 08:49:19;;;;;;;0.20;0.20;;;;;;;29.61;41.73;101400.41;4941238;28;20090;-92
2023/08/16 08:51:45;;;;;;;0.20;0.20;;;;;;;29.76;40.79;101392.44;4941937;28;20038;-92
2023/08/16 08:54:11;;;;;;;0.20;0.20;;;;;;;29.83;40.40;101389.88;4942463;28;20417;-92
2023/08/16 08:56:36;;;;;;;0.20;0.20;;;;;;;29.82;40.15;101391.72;4952312;29;20074;-90
2023/08/16 08:59:02;;;;;;;0.20;0.20;;;;;;;29.91;39.85;101390.63;4963535;28;20030;-89
2023/08/16 09:01:30;;;;;;;0.20;0.20;;;;;;;30.03;39.53;101392.81;4933153;28;20058;-90
2023/08/16 09:03:56;;;;;;;0.20;0.20;;;;;;;30.00;39.30;101388.69;4926510;28;20038;-94
2023/08/16 09:06:22;;;;;;;0.20;0.20;;;;;;;29.90;39.39;101372.97;4943498;28;20066;-92
2023/08/16 09:08:48;;;;;;;0.20;0.20;;;;;;;30.05;39.67;101386.28;4929697;28;20033;-90
2023/08/16 09:11:14;;;;;;;0.20;0.20;;;;;;;30.13;39.68;101393.41;4941408;28;20043;-91
2023/08/16 09:13:39;;;;;;;0.20;0.20;;;;;;;30.20;39.28;101389.00;4940505;28;20023;-90
2023/08/16 09:16:04;;;;;;;0.20;0.20;;;;;;;30.20;39.91;101383.66;4939097;28;20122;-92
2023/08/16 09:18:30;;;;;;;0.20;0.20;;;;;;;30.22;38.64;101368.28;4951525;28;20126;-91
2023/08/16 09:20:58;;;;;;;0.20;0.20;;;;;;;30.17;38.88;101366.16;4957240;28;20023;-92
2023/08/16 09:23:23;;;;;;;0.20;0.20;;;;;;;30.29;39.38;101392.41;4957367;28;20393;-87
2023/08/16 09:25:50;;;;;;;0.20;0.20;;;;;;;30.18;38.93;101385.66;4956309;28;20034;-93
2023/08/16 09:28:16;;;;;;;0.20;0.20;;;;;;;30.26;39.20;101366.88;4929265;28;20774;-86
2023/08/16 09:30:42;;;;;;;0.20;0.20;;;;;;;30.36;39.71;101370.09;4950266;28;20077;-92
2023/08/16 09:33:07;;;;;;;0.20;0.20;;;;;;;30.60;39.42;101378.81;5018493;23;20063;-88
2023/08/16 09:35:33;;;;;;;0.20;0.20;;;;;;;30.67;38.32;101374.38;4969333;28;20490;-87
2023/08/16 09:37:59;;;;;;;0.20;0.20;;;;;;;30.64;38.33;101370.25;4969316;28;20117;-88
2023/08/16 09:40:25;;;;;;;0.20;0.20;;;;;;;30.39;38.41;101367.06;4939317;28;20031;-92
2023/08/16 09:42:51;;;;;;;0.20;0.20;;;;;;;30.36;39.08;101372.75;4939569;28;20039;-90
2023/08/16 09:45:34;;;;;;;0.20;0.20;;;;;;;30.25;39.41;101381.25;4954015;29;20039;-91
2023/08/16 09:48:00;;;;;;;0.20;0.20;;;;;;;30.12;39.85;101375.75;4941415;28;20117;-89
2023/08/16 09:50:33;;;;;;;0.20;0.20;;;;;;;30.07;39.47;101378.94;4957232;28;20037;-93
2023/08/16 09:53:01;;;;;;;0.20;0.20;;;;;;;30.02;39.83;101362.66;4943344;29;20481;-94
2023/08/16 09:55:29;;;;;;;0.20;0.20;;;;;;;30.08;40.69;101374.44;4924304;29;20034;-92
2023/08/16 09:57:56;;;;;;;0.20;0.20;;;;;;;30.35;40.92;101388.97;4923976;29;20086;-88
2023/08/16 10:00:23;;;;;;;0.20;0.20;;;;;;;30.60;39.23;101371.63;4939789;29;20035;-89
2023/08/16 10:02:50;;;;;;;0.20;0.20;;;;;;;30.87;38.19;101382.59;4912674;28;20083;-91
2023/08/16 10:05:16;;;;;;;0.20;0.20;;;;;;;30.85;38.20;101377.44;4955111;28;20445;-92
2023/08/16 10:07:47;;;;;;;0.20;0.20;;;;;;;31.13;38.27;101381.00;4936124;28;20038;-96
2023/08/16 10:10:13;;;;;;;0.20;0.20;;;;;;;31.13;37.71;101369.50;4925820;29;20114;-93
2023/08/16 10:12:38;;;;;;;0.20;0.20;;;;;;;30.97;37.09;101375.91;4926259;29;20186;-94
2023/08/16 10:15:04;;;;;;;0.20;0.20;;;;;;;31.09;37.42;101374.41;4939550;29;20039;-91
2023/08/16 10:17:33;;;;;;;0.20;0.20;;;;;;;31.27;37.72;101371.31;4936125;29;20082;-94
2023/08/16 10:20:04;;;;;;;0.20;0.20;;;;;;;31.55;37.34;101379.31;4919213;29;20031;-85
2023/08/16 10:22:35;;;;;;;0.20;0.20;;;;;;;31.42;37.70;101373.88;4933968;29;20031;-85
2023/08/16 10:25:13;;;;;;;0.20;0.20;;;;;;;31.39;36.21;101371.59;4947681;29;20038;-94
2023/08/16 10:27:39;;;;;;;0.20;0.20;;;;;;;31.27;36.92;101375.84;4945531;29;20342;-93
2023/08/16 10:30:19;;;;;;;0.20;0.20;;;;;;;31.12;37.21;101355.31;4936893;29;20118;-91
2023/08/16 10:32:44;;;;;;;0.20;0.20;;;;;;;31.16;36.86;101362.94;4938119;29;20051;-92
2023/08/16 10:35:10;;;;;;;0.20;0.20;;;;;;;31.00;37.15;101348.84;4952847;29;20046;-88
2023/08/16 10:37:35;;;;;;;0.20;0.20;;;;;;;31.09;37.90;101368.25;4952494;28;20086;-92
2023/08/16 10:40:01;;;;;;;0.20;0.20;;;;;;;31.11;37.41;101364.34;4953369;28;20035;-88
2023/08/16 10:42:27;;;;;;;0.20;0.20;;;;;;;31.01;38.24;101349.66;4964622;28;20059;-85
2023/08/16 10:44:52;;;;;;;0.20;0.20;;;;;;;31.05;38.25;101358.94;4964624;28;20043;-84
2023/08/16 10:47:30;;;;;;;0.20;0.20;;;;;;;31.01;37.64;101357.69;4927873;29;20413;-88
2023/08/16 10:49:56;;;;;;;0.20;0.20;;;;;;;31.03;37.67;101364.47;4952186;29;20027;-93
2023/08/16 10:52:30;;;;;;;0.20;0.20;;;;;;;31.09;37.70;101352.22;4953494;28;20035;-86
2023/08/16 10:54:56;;;;;;;0.20;0.20;;;;;;;31.21;38.15;101344.53;4944816;29;20023;-89
2023/08/16 10:57:25;;;;;;;0.20;0.20;;;;;;;31.20;36.88;101346.38;4936271;29;20045;-86
2023/08/16 11:00:05;;;;;;;0.20;0.20;;;;;;;31.19;37.83;101354.56;4940584;29;20493;-92
2023/08/16 11:02:31;;;;;;;0.20;0.20;;;;;;;31.21;37.70;101348.03;4943235;28;20058;-90
2023/08/16 11:04:57;;;;;;;0.20;0.20;;;;;;;31.27;37.14;101349.09;4935479;29;20027;-88
2023/08/16 11:07:22;;;;;;;0.20;0.20;;;;;;;31.12;36.80;101346.47;4945665;28;20042;-88
2023/08/16 11:09:48;;;;;;;0.20;0.20;;;;;;;31.09;37.70;101358.38;4936781;29;20027;-94
2023/08/16 11:12:15;;;;;;;0.20;0.20;;;;;;;31.01;37.99;101357.69;4937989;29;20058;-90
2023/08/16 11:14:41;;;;;;;0.20;0.20;;;;;;;30.87;38.17;101359.38;4933086;29;20800;-90
2023/08/16 11:17:07;;;;;;;0.20;0.20;;;;;;;30.74;38.92;101348.56;4925733;29;20505;-91
2023/08/16 11:19:33;;;;;;;0.13;0.13;;;;;;;30.62;39.00;101355.41;4924988;29;20425;-90
2023/08/16 11:22:01;;;;;;;0.20;0.20;;;;;;;30.57;38.83;101363.97;4937339;29;20031;-91
2023/08/16 11:24:27;;;;;;;0.20;0.20;;;;;;;30.48;38.69;101352.59;4938446;29;20043;-93
2023/08/16 11:26:53;;;;;;;0.20;0.20;;;;;;;30.52;38.22;101351.19;4932110;28;20062;-91
2023/08/16 11:29:18;;;;;;;0.20;0.20;;;;;;;30.43;40.78;101335.47;4940542;28;20062;-88
2023/08/16 11:31:44;;;;;;;0.20;0.20;;;;;;;30.27;41.24;101339.16;4939672;28;20035;-87
2023/08/16 11:34:10;;;;;;;0.20;0.20;;;;;;;30.20;41.84;101338.28;4950163;28;20414;-91
2023/08/16 11:36:38;;;;;;;0.20;0.20;;;;;;;30.04;41.86;101327.78;4934813;28;20039;-86
2023/08/16 11:39:04;;;;;;;0.20;0.20;;;;;;;30.04;42.84;101346.44;4951100;28;20075;-91